createdAt,value
2022-07-26T00:00:50.627Z,100849.75
2022-07-26T00:03:17.900Z,100849.75
2022-07-26T00:05:45.056Z,100847.38
2022-07-26T00:08:12.448Z,100840.19
2022-07-26T00:10:45.263Z,100831.47
2022-07-26T00:13:13.589Z,100828.66
2022-07-26T00:15:40.857Z,100828.25
2022-07-26T00:18:12.062Z,100831.81
2022-07-26T00:20:40.021Z,100822.66
2022-07-26T00:23:08.697Z,100830.63
2022-07-26T00:25:35.969Z,100817.50
2022-07-26T00:28:03.300Z,100825.06
2022-07-26T00:30:30.771Z,100814.72
2022-07-26T00:32:58.012Z,100812.34
2022-07-26T00:35:25.306Z,100817.53
2022-07-26T00:37:52.987Z,100806.81
2022-07-26T00:40:20.088Z,100806.03
2022-07-26T00:42:47.423Z,100804.84
2022-07-26T00:45:15.420Z,100816.78
2022-07-26T00:47:42.662Z,100803.25
2022-07-26T00:50:13.813Z,100808.44
2022-07-26T00:52:49.380Z,100798.09
2022-07-26T00:55:18.223Z,100800.50
2022-07-26T00:57:45.993Z,100797.34
2022-07-26T01:00:17.964Z,100795.72
2022-07-26T01:02:45.902Z,100798.13
2022-07-26T01:05:13.270Z,100798.94
2022-07-26T01:07:41.149Z,100798.53
2022-07-26T01:10:12.694Z,100793.38
2022-07-26T01:12:41.294Z,100790.19
2022-07-26T01:15:09.929Z,100794.16
2022-07-26T01:17:38.241Z,100792.97
2022-07-26T01:20:08.686Z,100789.81
2022-07-26T01:22:35.974Z,100785.81
2022-07-26T01:25:03.229Z,100786.22
2022-07-26T01:27:33.939Z,100783.44
2022-07-26T01:30:01.337Z,100789.41
2022-07-26T01:32:28.579Z,100783.41
2022-07-26T01:34:55.620Z,100775.06
2022-07-26T01:37:22.671Z,100782.25
2022-07-26T01:39:49.843Z,100780.28
2022-07-26T01:42:16.917Z,100783.03
2022-07-26T01:44:44.122Z,100780.63
2022-07-26T01:47:11.158Z,100777.47
2022-07-26T01:49:38.332Z,100774.28
2022-07-26T01:52:05.779Z,100771.91
2022-07-26T01:54:32.890Z,100774.28
2022-07-26T01:56:59.921Z,100770.28
2022-07-26T01:59:27.093Z,100766.72
2022-07-26T02:01:54.335Z,100774.28
2022-07-26T02:04:39.890Z,100769.09
2022-07-26T02:07:10.783Z,100766.72
2022-07-26T02:09:40.583Z,100765.53
2022-07-26T02:12:07.984Z,100759.59
2022-07-26T02:14:35.105Z,100757.19
2022-07-26T02:17:02.314Z,100760.41
2022-07-26T02:19:30.004Z,100755.22
2022-07-26T02:21:57.323Z,100753.22
2022-07-26T02:24:24.601Z,100751.22
2022-07-26T02:26:52.001Z,100745.28
2022-07-26T02:29:19.182Z,100749.25
2022-07-26T02:31:48.506Z,100742.88
2022-07-26T02:34:16.764Z,100748.84
2022-07-26T02:36:44.112Z,100752.84
2022-07-26T02:39:11.514Z,100749.66
2022-07-26T02:41:39.099Z,100748.09
2022-07-26T02:44:07.394Z,100742.09
2022-07-26T02:46:35.272Z,100750.06
2022-07-26T02:49:02.440Z,100749.69
2022-07-26T02:51:29.716Z,100745.31
2022-07-26T02:53:56.858Z,100748.09
2022-07-26T02:56:24.015Z,100754.84
2022-07-26T02:58:51.250Z,100752.06
2022-07-26T03:01:18.479Z,100746.91
2022-07-26T03:03:50.400Z,100752.06
2022-07-26T03:06:19.209Z,100752.06
2022-07-26T03:08:47.303Z,100745.72
2022-07-26T03:11:14.574Z,100751.28
2022-07-26T03:13:41.699Z,100757.66
2022-07-26T03:16:09.202Z,100750.88
2022-07-26T03:18:36.411Z,100747.31
2022-07-26T03:21:03.927Z,100744.13
2022-07-26T03:23:33.753Z,100740.56
2022-07-26T03:26:02.602Z,100746.91
2022-07-26T03:28:33.898Z,100748.91
2022-07-26T03:31:01.655Z,100749.31
2022-07-26T03:33:30.506Z,100746.53
2022-07-26T03:35:57.700Z,100736.97
2022-07-26T03:38:24.901Z,100743.75
2022-07-26T03:40:52.618Z,100747.31
2022-07-26T03:43:23.029Z,100747.31
2022-07-26T03:45:51.239Z,100752.50
2022-07-26T03:48:21.999Z,100750.88
2022-07-26T03:50:49.021Z,100752.50
2022-07-26T03:53:16.089Z,100756.84
2022-07-26T03:56:01.644Z,100748.50
2022-07-26T03:58:28.911Z,100751.66
2022-07-26T04:00:56.138Z,100755.66
2022-07-26T04:03:23.389Z,100748.50
2022-07-26T04:05:50.591Z,100750.50
2022-07-26T04:08:20.164Z,100753.66
2022-07-26T04:10:53.890Z,100753.28
2022-07-26T04:13:21.229Z,100741.72
2022-07-26T04:15:48.352Z,100748.09
2022-07-26T04:18:15.734Z,100747.28
2022-07-26T04:20:43.508Z,100746.88
2022-07-26T04:23:11.819Z,100750.44
2022-07-26T04:25:41.535Z,100755.97
2022-07-26T04:28:10.043Z,100755.19
2022-07-26T04:30:37.590Z,100756.34
2022-07-26T04:33:05.649Z,100757.56
2022-07-26T04:35:33.447Z,100754.38
2022-07-26T04:38:02.562Z,100743.97
2022-07-26T04:40:33.679Z,100755.09
2022-07-26T04:43:02.369Z,100755.84
2022-07-26T04:45:30.270Z,100753.81
2022-07-26T04:47:58.460Z,100755.34
2022-07-26T04:50:28.202Z,100756.53
2022-07-26T04:52:55.787Z,100753.31
2022-07-26T04:55:23.839Z,100752.44
2022-07-26T04:57:51.842Z,100749.19
2022-07-26T05:00:24.228Z,100750.31
2022-07-26T05:02:57.977Z,100753.81
2022-07-26T05:05:27.386Z,100756.47
2022-07-26T05:07:56.605Z,100751.84
2022-07-26T05:10:34.081Z,100750.66
2022-07-26T05:13:04.097Z,100754.16
2022-07-26T05:15:35.542Z,100749.69
2022-07-26T05:18:10.963Z,100752.41
2022-07-26T05:20:41.012Z,100749.50
2022-07-26T05:23:08.216Z,100751.91
2022-07-26T05:25:36.725Z,100753.31
2022-07-26T05:28:04.417Z,100757.78
2022-07-26T05:30:31.688Z,100755.91
2022-07-26T05:32:58.944Z,100750.81
2022-07-26T05:35:26.067Z,100753.19
2022-07-26T05:37:53.219Z,100761.75
2022-07-26T05:40:20.512Z,100760.22
2022-07-26T05:42:47.577Z,100754.81
2022-07-26T05:45:14.811Z,100752.78
2022-07-26T05:47:41.955Z,100744.13
2022-07-26T05:50:09.514Z,100754.81
2022-07-26T05:52:36.745Z,100747.44
2022-07-26T05:55:04.166Z,100754.22
2022-07-26T05:57:31.407Z,100747.13
2022-07-26T05:59:58.458Z,100759.16
2022-07-26T06:02:25.648Z,100756.81
2022-07-26T06:04:52.982Z,100763.03
2022-07-26T06:07:20.214Z,100762.81
2022-07-26T06:09:47.337Z,100758.97
2022-07-26T06:12:14.538Z,100756.72
2022-07-26T06:14:41.674Z,100754.75
2022-07-26T06:17:09.118Z,100756.31
2022-07-26T06:19:36.250Z,100754.28
2022-07-26T06:22:04.220Z,100756.78
2022-07-26T06:24:31.675Z,100761.94
2022-07-26T06:27:04.945Z,100754.50
2022-07-26T06:29:33.412Z,100751.56
2022-07-26T06:32:00.880Z,100752.22
2022-07-26T06:34:28.371Z,100746.56
2022-07-26T06:36:55.661Z,100752.41
2022-07-26T06:39:22.910Z,100747.50
2022-07-26T06:41:50.258Z,100756.06
2022-07-26T06:44:23.018Z,100744.75
2022-07-26T06:46:50.362Z,100749.22
2022-07-26T06:49:21.959Z,100752.28
2022-07-26T06:51:49.667Z,100752.81
2022-07-26T06:54:16.825Z,100740.00
2022-07-26T06:56:44.117Z,100747.94
2022-07-26T06:59:11.242Z,100746.78
2022-07-26T07:01:51.725Z,100738.97
2022-07-26T07:04:25.650Z,100746.22
2022-07-26T07:06:52.755Z,100745.72
2022-07-26T07:09:20.087Z,100740.69
2022-07-26T07:11:53.696Z,100733.94
2022-07-26T07:14:25.892Z,100735.16
2022-07-26T07:16:53.219Z,100736.34
2022-07-26T07:19:20.415Z,100734.44
2022-07-26T07:21:47.500Z,100739.03
2022-07-26T07:24:14.890Z,100734.72
2022-07-26T07:26:42.384Z,100726.81
2022-07-26T07:29:15.509Z,100732.75
2022-07-26T07:31:48.001Z,100731.44
2022-07-26T07:34:19.677Z,100728.25
2022-07-26T07:36:47.159Z,100727.94
2022-07-26T07:39:17.454Z,100735.16
2022-07-26T07:41:47.235Z,100725.13
2022-07-26T07:44:14.838Z,100733.47
2022-07-26T07:46:42.174Z,100729.19
2022-07-26T07:49:11.106Z,100732.34
2022-07-26T07:51:38.835Z,100723.41
2022-07-26T07:54:06.408Z,100727.00
2022-07-26T07:56:34.778Z,100732.22
2022-07-26T07:59:02.138Z,100732.34
2022-07-26T08:01:40.312Z,100737.34
2022-07-26T08:04:09.710Z,100742.84
2022-07-26T08:06:37.142Z,100732.28
2022-07-26T08:09:06.388Z,100733.63
2022-07-26T08:11:34.319Z,100736.44
2022-07-26T08:14:02.331Z,100732.47
2022-07-26T08:16:29.694Z,100736.22
2022-07-26T08:18:58.374Z,100733.66
2022-07-26T08:21:29.095Z,100742.50
2022-07-26T08:23:57.546Z,100730.63
2022-07-26T08:26:25.104Z,100734.88
2022-07-26T08:28:59.856Z,100731.69
2022-07-26T08:31:29.115Z,100746.03
2022-07-26T08:33:56.597Z,100739.84
2022-07-26T08:36:26.178Z,100737.38
2022-07-26T08:38:58.263Z,100741.91
2022-07-26T08:41:25.361Z,100750.03
2022-07-26T08:43:53.755Z,100753.63
2022-07-26T08:46:26.535Z,100747.50
2022-07-26T08:48:56.936Z,100745.50
2022-07-26T08:51:25.790Z,100748.19
2022-07-26T08:54:03.741Z,100744.56
2022-07-26T08:56:34.395Z,100746.69
2022-07-26T08:59:17.177Z,100744.56
2022-07-26T09:02:00.071Z,100753.50
2022-07-26T09:04:35.378Z,100750.38
2022-07-26T09:07:19.247Z,100746.44
2022-07-26T09:09:55.548Z,100752.41
2022-07-26T09:12:24.374Z,100743.25
2022-07-26T09:14:51.866Z,100736.97
2022-07-26T09:17:21.145Z,100733.66
2022-07-26T09:20:13.265Z,100740.38
2022-07-26T09:22:58.718Z,100751.78
2022-07-26T09:25:27.298Z,100749.38
2022-07-26T09:27:54.837Z,100750.38
2022-07-26T09:30:22.273Z,100748.22
2022-07-26T09:33:03.231Z,100751.44
2022-07-26T09:35:50.939Z,100747.53
2022-07-26T09:38:19.484Z,100752.19
2022-07-26T09:40:50.600Z,100756.19
2022-07-26T09:43:24.202Z,100762.25
2022-07-26T09:46:06.280Z,100751.91
2022-07-26T09:48:59.341Z,100744.00
2022-07-26T09:51:42.152Z,100744.13
2022-07-26T09:54:11.590Z,100754.38
2022-07-26T09:56:57.609Z,100753.28
2022-07-26T09:59:26.235Z,100753.63
2022-07-26T10:01:54.900Z,100759.09
2022-07-26T10:04:22.235Z,100750.44
2022-07-26T10:06:49.719Z,100749.09
2022-07-26T10:09:18.733Z,100759.63
2022-07-26T10:11:57.367Z,100754.97
2022-07-26T10:14:33.790Z,100747.44
2022-07-26T10:17:21.904Z,100740.19
2022-07-26T10:20:03.803Z,100739.00
2022-07-26T10:22:31.387Z,100743.38
2022-07-26T10:25:18.376Z,100732.22
2022-07-26T10:27:47.453Z,100726.00
2022-07-26T10:30:17.747Z,100730.47
2022-07-26T10:32:59.851Z,100731.63
2022-07-26T10:35:30.294Z,100727.06
2022-07-26T10:37:59.789Z,100724.19
2022-07-26T10:40:30.368Z,100725.09
2022-07-26T10:43:39.408Z,100723.25
2022-07-26T10:46:18.109Z,100717.41
2022-07-26T10:49:09.023Z,100707.28
2022-07-26T10:51:41.175Z,100718.94
2022-07-26T10:54:14.087Z,100709.13
2022-07-26T10:56:41.576Z,100700.88
2022-07-26T10:59:08.842Z,100703.88
2022-07-26T11:01:38.733Z,100706.81
2022-07-26T11:04:07.578Z,100693.38
2022-07-26T11:06:35.044Z,100691.72
2022-07-26T11:09:11.164Z,100690.81
2022-07-26T11:11:38.819Z,100694.09
2022-07-26T11:14:11.617Z,100688.06
2022-07-26T11:16:50.230Z,100693.00
2022-07-26T11:19:20.233Z,100693.81
2022-07-26T11:21:55.577Z,100681.72
2022-07-26T11:24:23.010Z,100676.44
2022-07-26T11:26:50.551Z,100686.38
2022-07-26T11:29:35.636Z,100684.44
2022-07-26T11:32:17.729Z,100684.09
2022-07-26T11:34:46.176Z,100674.22
2022-07-26T11:37:13.844Z,100685.81
2022-07-26T11:39:41.302Z,100676.03
2022-07-26T11:42:19.804Z,100669.84
2022-07-26T11:44:48.587Z,100670.03
2022-07-26T11:47:24.399Z,100676.34
2022-07-26T11:52:41.235Z,100664.38
2022-07-26T11:55:09.109Z,100674.22
2022-07-26T11:57:36.350Z,100670.00
2022-07-26T12:00:04.777Z,100672.09
2022-07-26T12:02:40.892Z,100668.41
2022-07-26T12:05:20.294Z,100667.34
2022-07-26T12:08:05.413Z,100667.59
2022-07-26T12:10:33.041Z,100663.75
2022-07-26T12:13:08.002Z,100662.09
2022-07-26T12:15:49.596Z,100664.38
2022-07-26T12:18:50.963Z,100667.59
2022-07-26T12:21:18.073Z,100657.91
2022-07-26T12:23:49.037Z,100664.66
2022-07-26T12:26:29.424Z,100665.56
2022-07-26T12:28:58.448Z,100662.66
2022-07-26T12:31:27.440Z,100654.66
2022-07-26T12:33:55.305Z,100656.78
2022-07-26T12:36:28.018Z,100649.69
2022-07-26T12:39:00.599Z,100644.41
2022-07-26T12:41:39.592Z,100646.72
2022-07-26T12:44:08.765Z,100654.56
2022-07-26T12:46:36.654Z,100659.09
2022-07-26T12:49:05.333Z,100650.19
2022-07-26T12:51:33.094Z,100659.91
2022-07-26T12:54:00.355Z,100651.72
2022-07-26T12:56:30.651Z,100650.06
2022-07-26T12:59:01.761Z,100644.06
2022-07-26T13:01:30.336Z,100640.13
2022-07-26T13:03:57.711Z,100647.78
2022-07-26T13:06:25.010Z,100646.97
2022-07-26T13:08:56.760Z,100648.22
2022-07-26T13:11:24.224Z,100640.00
2022-07-26T13:13:51.493Z,100637.19
2022-07-26T13:16:18.778Z,100646.53
2022-07-26T13:18:47.920Z,100640.88
2022-07-26T13:21:15.063Z,100644.03
2022-07-26T13:23:44.548Z,100645.75
2022-07-26T13:26:14.164Z,100635.97
2022-07-26T13:28:41.889Z,100640.94
2022-07-26T13:31:09.466Z,100637.88
2022-07-26T13:33:39.463Z,100646.88
2022-07-26T13:36:07.055Z,100643.84
2022-07-26T13:38:34.263Z,100635.81
2022-07-26T13:41:03.554Z,100637.56
2022-07-26T13:43:33.360Z,100639.88
2022-07-26T13:46:00.652Z,100639.03
2022-07-26T13:48:30.029Z,100637.06
2022-07-26T13:50:57.891Z,100635.47
2022-07-26T13:53:25.311Z,100626.53
2022-07-26T13:55:52.585Z,100632.63
2022-07-26T13:58:21.861Z,100618.22
2022-07-26T14:00:49.487Z,100613.06
2022-07-26T14:03:17.056Z,100617.44
2022-07-26T14:05:44.274Z,100625.16
2022-07-26T14:08:11.748Z,100618.19
2022-07-26T14:10:40.183Z,100625.47
2022-07-26T14:13:08.512Z,100621.63
2022-07-26T14:15:36.482Z,100623.88
2022-07-26T14:18:04.198Z,100610.19
2022-07-26T14:20:31.353Z,100614.81
2022-07-26T14:22:58.429Z,100605.66
2022-07-26T14:25:27.856Z,100610.44
2022-07-26T14:27:55.603Z,100596.66
2022-07-26T14:30:23.504Z,100604.72
2022-07-26T14:32:51.201Z,100600.00
2022-07-26T14:35:18.469Z,100605.31
2022-07-26T14:37:46.218Z,100588.47
2022-07-26T14:40:16.156Z,100593.38
2022-07-26T14:42:43.867Z,100594.94
2022-07-26T14:45:12.682Z,100595.75
2022-07-26T14:47:40.482Z,100595.06
2022-07-26T14:50:09.302Z,100592.88
2022-07-26T14:52:42.534Z,100600.34
2022-07-26T14:55:10.251Z,100593.38
2022-07-26T14:57:39.103Z,100595.38
2022-07-26T15:00:13.151Z,100593.00
2022-07-26T15:02:45.771Z,100589.16
2022-07-26T15:05:14.418Z,100591.19
2022-07-26T15:07:42.282Z,100593.50
2022-07-26T15:10:12.209Z,100588.38
2022-07-26T15:12:39.908Z,100595.56
2022-07-26T15:15:07.946Z,100585.94
2022-07-26T15:17:36.142Z,100588.75
2022-07-26T15:20:04.206Z,100572.63
2022-07-26T15:22:31.532Z,100581.97
2022-07-26T15:24:58.772Z,100581.25
2022-07-26T15:27:26.034Z,100586.50
2022-07-26T15:29:53.154Z,100584.97
2022-07-26T15:32:21.497Z,100572.56
2022-07-26T15:34:49.033Z,100572.22
2022-07-26T15:37:16.563Z,100578.72
2022-07-26T15:39:43.693Z,100568.84
2022-07-26T15:42:11.041Z,100578.59
2022-07-26T15:44:42.884Z,100568.25
2022-07-26T15:47:11.015Z,100576.66
2022-07-26T15:49:40.165Z,100570.13
2022-07-26T15:52:12.996Z,100562.59
2022-07-26T15:54:42.503Z,100572.75
2022-07-26T15:57:09.796Z,100572.88
2022-07-26T15:59:36.973Z,100578.47
2022-07-26T16:02:06.186Z,100579.19
2022-07-26T16:04:33.707Z,100585.22
2022-07-26T16:07:01.008Z,100583.63
2022-07-26T16:09:28.417Z,100583.69
2022-07-26T16:11:56.756Z,100584.25
2022-07-26T16:14:23.903Z,100582.28
2022-07-26T16:16:51.273Z,100580.94
2022-07-26T16:19:18.438Z,100580.84
2022-07-26T16:21:45.653Z,100575.31
2022-07-26T16:24:13.156Z,100570.50
2022-07-26T16:26:40.992Z,100582.47
2022-07-26T16:29:09.056Z,100574.56
2022-07-26T16:31:37.332Z,100577.09
2022-07-26T16:34:04.642Z,100567.28
2022-07-26T16:36:31.928Z,100570.47
2022-07-26T16:38:59.207Z,100566.13
2022-07-26T16:41:26.357Z,100576.66
2022-07-26T16:43:53.583Z,100572.38
2022-07-26T16:46:21.076Z,100580.63
2022-07-26T16:48:48.564Z,100573.19
2022-07-26T16:51:16.845Z,100573.25
2022-07-26T16:53:44.596Z,100578.53
2022-07-26T16:56:11.757Z,100570.94
2022-07-26T16:58:38.947Z,100576.94
2022-07-26T17:01:06.263Z,100574.09
2022-07-26T17:03:33.379Z,100580.41
2022-07-26T17:06:06.503Z,100576.44
2022-07-26T17:08:34.194Z,100580.47
2022-07-26T17:11:01.631Z,100578.06
2022-07-26T17:13:28.792Z,100580.97
2022-07-26T17:15:56.052Z,100565.00
2022-07-26T17:18:23.219Z,100567.38
2022-07-26T17:20:50.482Z,100570.50
2022-07-26T17:23:18.727Z,100574.81
2022-07-26T17:25:46.299Z,100574.38
2022-07-26T17:28:13.953Z,100578.78
2022-07-26T17:30:41.155Z,100583.59
2022-07-26T17:33:08.312Z,100581.19
2022-07-26T17:35:35.758Z,100587.59
2022-07-26T17:38:02.963Z,100580.84
2022-07-26T17:40:31.893Z,100588.50
2022-07-26T17:42:59.899Z,100585.31
2022-07-26T17:45:27.080Z,100581.50
2022-07-26T17:47:54.205Z,100586.53
2022-07-26T17:50:38.226Z,100589.44
2022-07-26T17:53:06.071Z,100592.28
2022-07-26T17:55:34.158Z,100594.72
2022-07-26T17:58:01.519Z,100588.38
2022-07-26T18:00:29.366Z,100579.63
2022-07-26T18:02:57.886Z,100589.25
2022-07-26T18:05:33.013Z,100594.88
2022-07-26T18:08:02.248Z,100594.09
2022-07-26T18:10:29.534Z,100593.34
2022-07-26T18:12:56.611Z,100595.81
2022-07-26T18:15:23.961Z,100599.84
2022-07-26T18:17:51.058Z,100604.59
2022-07-26T18:20:18.248Z,100602.19
2022-07-26T18:22:50.361Z,100597.81
2022-07-26T18:25:17.937Z,100595.06
2022-07-26T18:27:45.241Z,100597.47
2022-07-26T18:30:12.517Z,100605.47
2022-07-26T18:32:39.746Z,100603.50
2022-07-26T18:35:07.314Z,100611.84
2022-07-26T18:37:34.601Z,100614.22
2022-07-26T18:40:02.228Z,100614.22
2022-07-26T18:42:29.519Z,100605.84
2022-07-26T18:44:56.919Z,100613.84
2022-07-26T18:47:24.274Z,100607.91
2022-07-26T18:49:51.582Z,100609.84
2022-07-26T18:52:28.943Z,100611.84
2022-07-26T18:55:02.426Z,100615.41
2022-07-26T18:57:29.684Z,100622.63
2022-07-26T18:59:56.777Z,100623.84
2022-07-26T19:02:23.908Z,100623.31
2022-07-26T19:04:51.151Z,100625.28
2022-07-26T19:07:18.439Z,100630.91
2022-07-26T19:09:45.531Z,100630.91
2022-07-26T19:12:12.639Z,100632.88
2022-07-26T19:14:39.741Z,100631.66
2022-07-26T19:17:10.095Z,100629.25
2022-07-26T19:19:38.795Z,100636.41
2022-07-26T19:22:06.020Z,100633.28
2022-07-26T19:24:41.741Z,100638.06
2022-07-26T19:27:09.757Z,100638.47
2022-07-26T19:29:38.172Z,100636.88
2022-07-26T19:32:05.936Z,100636.50
2022-07-26T19:34:33.110Z,100634.91
2022-07-26T19:37:00.510Z,100640.50
2022-07-26T19:39:27.650Z,100652.47
2022-07-26T19:41:55.010Z,100643.31
2022-07-26T19:44:22.162Z,100646.88
2022-07-26T19:46:52.993Z,100653.31
2022-07-26T19:49:22.927Z,100659.34
2022-07-26T19:51:50.469Z,100664.13
2022-07-26T19:54:17.669Z,100670.09
2022-07-26T19:56:46.530Z,100666.13
2022-07-26T19:59:16.878Z,100674.50
2022-07-26T20:01:50.037Z,100667.66
2022-07-26T20:04:18.692Z,100676.84
2022-07-26T20:06:46.302Z,100679.22
2022-07-26T20:09:14.122Z,100675.25
2022-07-26T20:11:43.206Z,100672.03
2022-07-26T20:14:10.406Z,100676.00
2022-07-26T20:16:37.738Z,100676.38
2022-07-26T20:19:05.007Z,100675.97
2022-07-26T20:21:32.241Z,100676.31
2022-07-26T20:23:59.375Z,100681.91
2022-07-26T20:26:26.544Z,100687.88
2022-07-26T20:28:55.401Z,100685.13
2022-07-26T20:31:22.803Z,100676.38
2022-07-26T20:33:49.996Z,100684.38
2022-07-26T20:36:17.322Z,100685.97
2022-07-26T20:38:49.542Z,100682.78
2022-07-26T20:41:18.763Z,100685.16
2022-07-26T20:43:48.598Z,100674.78
2022-07-26T20:46:15.979Z,100677.59
2022-07-26T20:48:43.761Z,100677.63
2022-07-26T20:51:13.254Z,100675.22
2022-07-26T20:53:41.816Z,100671.59
2022-07-26T20:56:10.500Z,100660.41
2022-07-26T20:58:39.003Z,100669.88
2022-07-26T21:01:06.399Z,100663.47
2022-07-26T21:03:33.745Z,100665.03
2022-07-26T21:06:01.051Z,100663.44
2022-07-26T21:08:28.367Z,100665.06
2022-07-26T21:10:55.490Z,100659.50
2022-07-26T21:13:22.587Z,100658.69
2022-07-26T21:15:51.477Z,100662.63
2022-07-26T21:18:18.593Z,100659.84
2022-07-26T21:20:46.106Z,100665.38
2022-07-26T21:23:17.865Z,100661.75
2022-07-26T21:25:45.764Z,100664.88
2022-07-26T21:28:12.878Z,100658.88
2022-07-26T21:30:40.269Z,100660.06
2022-07-26T21:33:08.079Z,100664.47
2022-07-26T21:35:35.383Z,100663.69
2022-07-26T21:38:02.557Z,100656.91
2022-07-26T21:40:29.850Z,100654.56
2022-07-26T21:42:57.040Z,100656.63
2022-07-26T21:45:24.102Z,100661.41
2022-07-26T21:47:51.436Z,100651.84
2022-07-26T21:50:18.548Z,100655.44
2022-07-26T21:52:45.728Z,100651.81
2022-07-26T21:55:15.462Z,100651.84
2022-07-26T21:57:45.323Z,100649.06
2022-07-26T22:00:15.170Z,100641.88
2022-07-26T22:02:42.587Z,100645.81
2022-07-26T22:05:28.528Z,100645.81
2022-07-26T22:07:56.175Z,100645.81
2022-07-26T22:10:23.615Z,100651.78
2022-07-26T22:12:51.633Z,100646.97
2022-07-26T22:15:19.069Z,100649.38
2022-07-26T22:17:46.401Z,100651.78
2022-07-26T22:20:13.642Z,100647.03
2022-07-26T22:22:40.921Z,100642.66
2022-07-26T22:25:08.657Z,100644.22
2022-07-26T22:27:35.732Z,100638.59
2022-07-26T22:30:03.071Z,100643.00
2022-07-26T22:32:30.199Z,100647.41
2022-07-26T22:34:57.310Z,100645.00
2022-07-26T22:37:24.438Z,100642.69
2022-07-26T22:39:51.534Z,100651.50
2022-07-26T22:42:18.774Z,100635.19
2022-07-26T22:44:45.883Z,100642.84
2022-07-26T22:47:13.140Z,100644.50
2022-07-26T22:49:40.264Z,100649.72
2022-07-26T22:52:07.516Z,100646.16
2022-07-26T22:54:34.608Z,100645.38
2022-07-26T22:57:01.800Z,100643.03
2022-07-26T22:59:28.932Z,100650.59
2022-07-26T23:01:56.856Z,100648.19
2022-07-26T23:04:24.035Z,100651.75
2022-07-26T23:06:51.359Z,100639.00
2022-07-26T23:09:22.059Z,100641.84
2022-07-26T23:11:49.153Z,100639.13
2022-07-26T23:14:16.227Z,100648.31
2022-07-26T23:16:43.476Z,100644.78
2022-07-26T23:19:11.619Z,100640.00
2022-07-26T23:21:39.042Z,100644.38
2022-07-26T23:24:06.573Z,100640.00
2022-07-26T23:26:33.723Z,100644.03
2022-07-26T23:29:00.939Z,100643.19
2022-07-26T23:31:28.172Z,100636.44
2022-07-26T23:33:55.221Z,100639.22
2022-07-26T23:36:24.507Z,100640.84
2022-07-26T23:38:51.864Z,100640.88
2022-07-26T23:41:19.515Z,100633.69
2022-07-26T23:43:46.616Z,100643.22
2022-07-26T23:46:14.030Z,100642.47
2022-07-26T23:48:41.190Z,100638.53
2022-07-26T23:51:08.421Z,100638.53
2022-07-26T23:53:35.715Z,100636.19
2022-07-26T23:56:03.192Z,100630.69
2022-07-26T23:58:30.498Z,100629.13
